createdAt,value
2023-04-02T00:00:21.399Z,5.11
2023-04-02T00:01:21.401Z,5.11
2023-04-02T00:02:21.442Z,5.11
2023-04-02T00:03:21.457Z,4.94
2023-04-02T00:04:21.398Z,5.11
2023-04-02T00:05:21.419Z,4.83
2023-04-02T00:06:21.434Z,4.94
2023-04-02T00:08:21.402Z,4.94
2023-04-02T00:09:21.408Z,4.94
2023-04-02T00:10:21.405Z,4.94
2023-04-02T00:11:21.409Z,4.94
2023-04-02T00:13:21.402Z,4.94
2023-04-02T00:14:21.407Z,4.83
2023-04-02T00:16:21.420Z,4.94
2023-04-02T00:17:21.408Z,4.94
2023-04-02T00:18:21.501Z,4.94
2023-04-02T00:20:21.453Z,4.94
2023-04-02T00:21:21.398Z,4.94
2023-04-02T00:22:21.435Z,4.83
2023-04-02T00:23:21.410Z,4.94
2023-04-02T00:24:21.409Z,4.94
2023-04-02T00:25:21.411Z,4.94
2023-04-02T00:27:21.417Z,4.94
2023-04-02T00:28:21.421Z,4.39
2023-04-02T00:29:21.421Z,4.94
2023-04-02T00:30:21.408Z,4.67
2023-04-02T00:31:21.423Z,4.83
2023-04-02T00:33:21.417Z,4.67
2023-04-02T00:35:21.425Z,4.5
2023-04-02T00:36:21.428Z,4.67
2023-04-02T00:37:21.435Z,4.5
2023-04-02T00:38:21.452Z,4.67
2023-04-02T00:39:21.416Z,4.67
2023-04-02T00:40:21.424Z,4.5
2023-04-02T00:41:21.412Z,4.5
2023-04-02T00:42:21.431Z,4.39
2023-04-02T00:43:21.424Z,4.5
2023-04-02T00:44:21.443Z,4.5
2023-04-02T00:46:21.431Z,4.5
2023-04-02T00:48:21.435Z,4.5
2023-04-02T00:49:21.463Z,4.5
2023-04-02T00:50:21.464Z,4.5
2023-04-02T00:52:21.442Z,4.5
2023-04-02T00:53:21.460Z,4.5
2023-04-02T00:54:21.468Z,4.39
2023-04-02T00:56:21.430Z,4.5
2023-04-02T00:57:21.472Z,4.5
2023-04-02T00:58:21.425Z,4.39
2023-04-02T00:59:21.433Z,4.39
2023-04-02T01:00:21.464Z,4.5
2023-04-02T01:01:21.494Z,4.5
2023-04-02T01:02:21.478Z,4.5
2023-04-02T01:03:21.492Z,4.5
2023-04-02T01:04:21.438Z,4.5
2023-04-02T01:05:21.441Z,4.39
2023-04-02T01:06:21.459Z,4.39
2023-04-02T01:08:21.457Z,4.5
2023-04-02T01:10:21.465Z,4.5
2023-04-02T01:12:21.457Z,4.5
2023-04-02T01:13:21.461Z,4.11
2023-04-02T01:15:21.452Z,4.5
2023-04-02T01:16:21.482Z,4.39
2023-04-02T01:17:21.441Z,3.94
2023-04-02T01:18:21.453Z,4.5
2023-04-02T01:19:21.444Z,4.39
2023-04-02T01:20:21.454Z,4.5
2023-04-02T01:22:21.456Z,4.67
2023-04-02T01:24:21.453Z,4.39
2023-04-02T01:25:21.446Z,4.11
2023-04-02T01:26:21.495Z,4.22
2023-04-02T01:27:21.468Z,4.39
2023-04-02T01:28:21.460Z,4.5
2023-04-02T01:30:21.461Z,4.67
2023-04-02T01:31:21.479Z,4.5
2023-04-02T01:32:21.453Z,4.5
2023-04-02T01:33:21.458Z,4.5
2023-04-02T01:34:21.593Z,4.5
2023-04-02T01:35:21.451Z,4.83
2023-04-02T01:36:21.484Z,4.83
2023-04-02T01:37:21.471Z,4.94
2023-04-02T01:38:21.468Z,4.94
2023-04-02T01:40:21.466Z,4.83
2023-04-02T01:41:21.466Z,4.94
2023-04-02T01:42:21.494Z,4.94
2023-04-02T01:44:21.484Z,4.67
2023-04-02T01:46:21.477Z,4.94
2023-04-02T01:48:21.466Z,4.94
2023-04-02T01:49:21.486Z,4.94
2023-04-02T01:50:21.461Z,4.67
2023-04-02T01:51:21.492Z,4.83
2023-04-02T01:52:21.471Z,4.67
2023-04-02T01:53:21.475Z,4.83
2023-04-02T01:55:21.475Z,4.5
2023-04-02T01:57:21.562Z,4.5
2023-04-02T01:58:21.499Z,4.5
2023-04-02T02:00:21.490Z,4.11
2023-04-02T02:01:21.484Z,4.5
2023-04-02T02:02:21.504Z,4.5
2023-04-02T02:03:21.633Z,4.83
2023-04-02T02:04:21.471Z,4.67
2023-04-02T02:05:21.487Z,4.39
2023-04-02T02:07:21.507Z,4.39
2023-04-02T02:08:21.496Z,4.67
2023-04-02T02:09:21.480Z,4.5
2023-04-02T02:11:21.498Z,4.5
2023-04-02T02:12:21.469Z,4.5
2023-04-02T02:13:21.499Z,4.67
2023-04-02T02:14:21.515Z,4.11
2023-04-02T02:15:21.492Z,4.5
2023-04-02T02:16:21.539Z,4.39
2023-04-02T02:17:21.610Z,4.5
2023-04-02T02:18:21.489Z,4.22
2023-04-02T02:20:21.489Z,4.11
2023-04-02T02:21:21.502Z,4.5
2023-04-02T02:22:21.487Z,4.5
2023-04-02T02:23:21.542Z,4.5
2023-04-02T02:24:21.506Z,4.11
2023-04-02T02:25:21.512Z,4.22
2023-04-02T02:26:21.512Z,4.11
2023-04-02T02:27:21.508Z,4.39
2023-04-02T02:28:21.505Z,4.5
2023-04-02T02:29:21.504Z,4.39
2023-04-02T02:30:21.535Z,4.22
2023-04-02T02:31:21.502Z,4.5
2023-04-02T02:32:21.545Z,3.94
2023-04-02T02:33:21.509Z,4.11
2023-04-02T02:34:21.505Z,4.22
2023-04-02T02:35:21.514Z,4.22
2023-04-02T02:36:21.511Z,4.22
2023-04-02T02:37:21.526Z,4.22
2023-04-02T02:39:21.514Z,4.39
2023-04-02T02:40:21.518Z,4.39
2023-04-02T02:41:21.508Z,4.22
2023-04-02T02:42:21.528Z,4.39
2023-04-02T02:43:21.504Z,4.11
2023-04-02T02:44:21.549Z,4.39
2023-04-02T02:45:21.495Z,4.39
2023-04-02T02:46:21.554Z,4.22
2023-04-02T02:48:21.524Z,4.22
2023-04-02T02:50:21.511Z,4.11
2023-04-02T02:51:21.523Z,4.22
2023-04-02T02:52:21.522Z,4.5
2023-04-02T02:53:21.524Z,4.39
2023-04-02T02:54:21.505Z,4.39
2023-04-02T02:55:21.532Z,4.22
2023-04-02T02:56:21.533Z,4.11
2023-04-02T02:57:21.571Z,4.11
2023-04-02T02:59:21.537Z,3.94
2023-04-02T03:01:21.545Z,4.11
2023-04-02T03:02:21.631Z,3.78
2023-04-02T03:04:21.541Z,4.11
2023-04-02T03:06:21.524Z,4.11
2023-04-02T03:07:21.508Z,3.78
2023-04-02T03:08:21.526Z,4.22
2023-04-02T03:09:21.526Z,4.22
2023-04-02T03:11:21.525Z,3.94
2023-04-02T03:12:21.512Z,4.22
2023-04-02T03:13:21.528Z,4.11
2023-04-02T03:14:21.526Z,3.94
2023-04-02T03:15:21.524Z,4.22
2023-04-02T03:16:21.549Z,4.11
2023-04-02T03:17:21.533Z,4.11
2023-04-02T03:18:21.555Z,4.11
2023-04-02T03:20:21.531Z,4.39
2023-04-02T03:21:21.538Z,4.39
2023-04-02T03:22:21.532Z,4.11
2023-04-02T03:23:21.538Z,4.39
2023-04-02T03:24:21.551Z,4.39
2023-04-02T03:25:21.535Z,4.22
2023-04-02T03:26:21.542Z,4.39
2023-04-02T03:27:21.531Z,4.11
2023-04-02T03:28:21.534Z,4.22
2023-04-02T03:29:21.577Z,4.22
2023-04-02T03:30:21.553Z,4.39
2023-04-02T03:32:21.546Z,4.11
2023-04-02T03:33:21.556Z,4.39
2023-04-02T03:34:21.597Z,4.11
2023-04-02T03:36:21.617Z,4.39
2023-04-02T03:38:21.555Z,4.11
2023-04-02T03:39:21.565Z,4.22
2023-04-02T03:40:21.548Z,4.39
2023-04-02T03:41:21.573Z,4.22
2023-04-02T03:43:21.551Z,4.11
2023-04-02T03:44:21.565Z,4.39
2023-04-02T03:46:21.592Z,4.11
2023-04-02T03:47:21.579Z,4.22
2023-04-02T03:48:21.547Z,4.11
2023-04-02T03:49:21.551Z,4.22
2023-04-02T03:50:21.586Z,3.94
2023-04-02T03:51:21.596Z,4.39
2023-04-02T03:52:21.570Z,4.22
2023-04-02T03:53:21.552Z,4.39
2023-04-02T03:54:21.559Z,4.11
2023-04-02T03:55:21.558Z,3.67
2023-04-02T03:57:21.607Z,4.11
2023-04-02T03:59:21.592Z,3.94
2023-04-02T04:00:21.574Z,4.11
2023-04-02T04:01:21.564Z,4.22
2023-04-02T04:02:21.731Z,3.94
2023-04-02T04:03:21.563Z,4.22
2023-04-02T04:04:21.607Z,4.11
2023-04-02T04:05:21.578Z,3.94
2023-04-02T04:06:21.587Z,4.11
2023-04-02T04:08:21.571Z,3.94
2023-04-02T04:10:21.569Z,3.94
2023-04-02T04:11:21.601Z,4.22
2023-04-02T04:13:21.591Z,3.94
2023-04-02T04:15:21.568Z,4.11
2023-04-02T04:16:21.610Z,3.78
2023-04-02T04:18:21.626Z,4.11
2023-04-02T04:19:21.574Z,4.22
2023-04-02T04:20:21.583Z,4.39
2023-04-02T04:21:21.570Z,4.5
2023-04-02T04:22:21.615Z,4.22
2023-04-02T04:24:21.592Z,4.5
2023-04-02T04:25:21.573Z,4.11
2023-04-02T04:26:21.582Z,4.11
2023-04-02T04:28:21.602Z,3.94
2023-04-02T04:29:21.588Z,4.39
2023-04-02T04:31:23.431Z,4.11
2023-04-02T04:32:21.602Z,4.22
2023-04-02T04:33:21.578Z,4.22
2023-04-02T04:34:21.574Z,4.22
2023-04-02T04:35:21.596Z,3.94
2023-04-02T04:36:21.589Z,4.11
2023-04-02T04:37:21.646Z,4.11
2023-04-02T04:38:21.631Z,4.11
2023-04-02T04:40:21.599Z,4.11
2023-04-02T04:41:21.583Z,3.94
2023-04-02T04:42:21.581Z,3.94
2023-04-02T04:43:21.588Z,4.11
2023-04-02T04:44:21.578Z,4.11
2023-04-02T04:45:21.598Z,4.11
2023-04-02T04:46:21.595Z,4.11
2023-04-02T04:47:21.592Z,3.78
2023-04-02T04:48:21.580Z,3.94
2023-04-02T04:49:21.579Z,4.11
2023-04-02T04:50:21.595Z,4.11
2023-04-02T04:51:21.603Z,3.67
2023-04-02T04:52:21.584Z,4.11
2023-04-02T04:53:21.608Z,3.67
2023-04-02T04:54:21.618Z,3.94
2023-04-02T04:56:21.587Z,3.94
2023-04-02T04:58:21.590Z,4.11
2023-04-02T05:00:21.592Z,4.11
2023-04-02T05:02:21.592Z,4.11
2023-04-02T05:03:21.581Z,4.11
2023-04-02T05:04:21.641Z,3.78
2023-04-02T05:05:21.596Z,4.22
2023-04-02T05:06:21.582Z,4.22
2023-04-02T05:07:21.608Z,3.78
2023-04-02T05:08:21.594Z,4.39
2023-04-02T05:09:21.595Z,3.94
2023-04-02T05:10:21.609Z,4.39
2023-04-02T05:12:21.641Z,4.22
2023-04-02T05:13:21.595Z,4.39
2023-04-02T05:14:21.595Z,4.22
2023-04-02T05:15:21.587Z,4.11
2023-04-02T05:16:21.660Z,4.11
2023-04-02T05:18:21.590Z,3.94
2023-04-02T05:19:21.598Z,4.11
2023-04-02T05:20:21.609Z,4.22
2023-04-02T05:21:21.600Z,4.22
2023-04-02T05:22:21.597Z,4.11
2023-04-02T05:23:21.603Z,4.11
2023-04-02T05:24:21.598Z,4.39
2023-04-02T05:25:21.601Z,4.5
2023-04-02T05:26:21.642Z,3.94
2023-04-02T05:28:21.609Z,4.22
2023-04-02T05:29:21.596Z,4.39
2023-04-02T05:30:21.623Z,4.22
2023-04-02T05:31:21.654Z,4.39
2023-04-02T05:32:21.625Z,4.5
2023-04-02T05:34:21.603Z,4.39
2023-04-02T05:35:21.596Z,4.5
2023-04-02T05:36:21.722Z,4.22
2023-04-02T05:37:21.631Z,4.5
2023-04-02T05:38:21.615Z,4.5
2023-04-02T05:39:21.607Z,4.5
2023-04-02T05:40:21.629Z,4.22
2023-04-02T05:42:21.639Z,4.22
2023-04-02T05:43:21.609Z,4.39
2023-04-02T05:44:21.637Z,4.5
2023-04-02T05:45:21.616Z,4.5
2023-04-02T05:46:21.660Z,4.11
2023-04-02T05:47:21.688Z,4.11
2023-04-02T05:49:21.626Z,4.22
2023-04-02T05:50:21.622Z,4.67
2023-04-02T05:51:21.624Z,4.67
2023-04-02T05:53:21.623Z,4.39
2023-04-02T05:54:21.636Z,4.67
2023-04-02T05:55:21.638Z,4.83
2023-04-02T05:56:21.617Z,4.83
2023-04-02T05:57:24.996Z,4.83
2023-04-02T05:58:35.160Z,3.94
2023-04-02T06:00:21.633Z,4.83
2023-04-02T06:02:21.669Z,4.94
2023-04-02T06:03:21.671Z,4.94
2023-04-02T06:05:21.650Z,4.94
2023-04-02T06:06:21.633Z,4.83
2023-04-02T06:07:21.655Z,5.11
2023-04-02T06:08:21.644Z,5.11
2023-04-02T06:10:23.521Z,5.39
2023-04-02T06:12:21.633Z,4.94
2023-04-02T06:13:21.637Z,5.22
2023-04-02T06:14:21.674Z,5.22
2023-04-02T06:16:21.687Z,5.39
2023-04-02T06:17:21.665Z,5.39
2023-04-02T06:18:21.650Z,5.22
2023-04-02T06:19:21.656Z,5.39
2023-04-02T06:20:21.646Z,5.39
2023-04-02T06:22:21.645Z,5.39
2023-04-02T06:23:21.647Z,5.67
2023-04-02T06:25:21.676Z,5.39
2023-04-02T06:26:21.643Z,5.39
2023-04-02T06:27:21.649Z,5.22
2023-04-02T06:28:21.651Z,5.39
2023-04-02T06:29:21.651Z,5.56
2023-04-02T06:30:21.696Z,5.56
2023-04-02T06:32:21.706Z,5.67
2023-04-02T06:33:21.657Z,5.67
2023-04-02T06:35:21.658Z,5.67
2023-04-02T06:36:21.664Z,6.06
2023-04-02T06:37:21.656Z,6.06
2023-04-02T06:38:21.651Z,5.94
2023-04-02T06:39:21.655Z,5.78
2023-04-02T06:40:21.646Z,5.94
2023-04-02T06:41:21.667Z,5.67
2023-04-02T06:42:21.654Z,6.06
2023-04-02T06:43:21.669Z,5.67
2023-04-02T06:45:21.667Z,5.67
2023-04-02T06:46:21.748Z,5.67
2023-04-02T06:48:21.689Z,5.94
2023-04-02T06:49:21.686Z,5.56
2023-04-02T06:51:21.675Z,5.78
2023-04-02T06:52:21.682Z,6.22
2023-04-02T06:54:21.680Z,5.67
2023-04-02T06:55:21.708Z,6.06
2023-04-02T06:56:21.677Z,5.78
2023-04-02T06:57:21.731Z,5.78
2023-04-02T06:58:21.674Z,5.78
2023-04-02T06:59:21.695Z,5.78
2023-04-02T07:00:21.670Z,6.06
2023-04-02T07:01:21.696Z,5.67
2023-04-02T07:02:21.704Z,6.06
2023-04-02T07:03:21.679Z,5.78
2023-04-02T07:04:21.789Z,5.78
2023-04-02T07:06:21.679Z,5.78
2023-04-02T07:07:21.674Z,6.06
2023-04-02T07:08:21.725Z,5.39
2023-04-02T07:10:21.689Z,6.06
2023-04-02T07:11:21.687Z,6.22
2023-04-02T07:13:21.699Z,6.22
2023-04-02T07:15:21.689Z,6.22
2023-04-02T07:16:21.806Z,6.22
2023-04-02T07:17:21.746Z,6.22
2023-04-02T07:18:21.708Z,6.06
2023-04-02T07:20:21.689Z,6.22
2023-04-02T07:22:21.691Z,6.22
2023-04-02T07:24:21.687Z,6.39
2023-04-02T07:25:21.701Z,6.67
2023-04-02T07:26:21.682Z,6.67
2023-04-02T07:27:21.687Z,6.94
2023-04-02T07:28:22.841Z,6.78
2023-04-02T07:29:21.685Z,6.67
2023-04-02T07:30:21.689Z,6.39
2023-04-02T07:31:21.684Z,6.39
2023-04-02T07:32:21.689Z,6.06
2023-04-02T07:34:21.721Z,6.67
2023-04-02T07:36:21.722Z,6.67
2023-04-02T07:38:21.706Z,6.5
2023-04-02T07:40:21.715Z,6.94
2023-04-02T07:41:21.726Z,6.94
2023-04-02T07:42:21.695Z,7.39
2023-04-02T07:43:21.700Z,7.67
2023-04-02T07:44:21.694Z,7.39
2023-04-02T07:45:21.716Z,7.39
2023-04-02T07:46:21.753Z,7.11
2023-04-02T07:47:21.700Z,6.94
2023-04-02T07:48:21.741Z,7.39
2023-04-02T07:50:21.746Z,7.11
2023-04-02T07:52:21.715Z,7.5
2023-04-02T07:53:21.726Z,7.78
2023-04-02T07:54:21.714Z,7.94
2023-04-02T07:55:21.709Z,7.94
2023-04-02T07:56:21.708Z,7.78
2023-04-02T07:57:21.787Z,8.11
2023-04-02T07:59:21.751Z,7.94
2023-04-02T08:00:21.772Z,8.11
2023-04-02T08:02:21.741Z,7.94
2023-04-02T08:03:21.769Z,8.39
2023-04-02T08:04:21.760Z,8.28
2023-04-02T08:05:21.706Z,8.39
2023-04-02T08:06:21.735Z,8.39
2023-04-02T08:08:21.717Z,8.28
2023-04-02T08:09:21.719Z,8.39
2023-04-02T08:11:21.720Z,7.94
2023-04-02T08:12:21.745Z,8.39
2023-04-02T08:13:21.720Z,8.61
2023-04-02T08:14:21.738Z,8.39
2023-04-02T08:15:21.716Z,8.39
2023-04-02T08:16:21.741Z,8.78
2023-04-02T08:17:21.728Z,8.5
2023-04-02T08:18:21.731Z,8.78
2023-04-02T08:19:21.721Z,9.06
2023-04-02T08:21:21.734Z,8.78
2023-04-02T08:22:21.790Z,9.06
2023-04-02T08:24:21.731Z,8.78
2023-04-02T08:25:21.751Z,9.06
2023-04-02T08:27:21.737Z,8.78
2023-04-02T08:28:21.754Z,8.94
2023-04-02T08:29:21.733Z,8.78
2023-04-02T08:30:21.737Z,9.39
2023-04-02T08:31:21.773Z,9.5
2023-04-02T08:33:21.744Z,9.06
2023-04-02T08:34:21.747Z,9.06
2023-04-02T08:35:21.747Z,9.39
2023-04-02T08:37:21.743Z,9.78
2023-04-02T08:38:21.774Z,9.94
2023-04-02T08:40:21.745Z,9.5
2023-04-02T08:42:21.754Z,9.78
2023-04-02T08:44:21.757Z,10.11
2023-04-02T08:46:21.776Z,10.11
2023-04-02T08:47:21.743Z,10.11
2023-04-02T08:48:21.745Z,9.78
2023-04-02T08:49:21.757Z,9.06
2023-04-02T08:51:21.753Z,8.94
2023-04-02T08:53:21.774Z,8.94
2023-04-02T08:54:21.785Z,9.22
2023-04-02T08:55:21.745Z,9.06
2023-04-02T08:56:21.759Z,9.22
2023-04-02T08:57:21.781Z,9.22
2023-04-02T08:58:21.742Z,8.78
2023-04-02T08:59:21.761Z,8.94
2023-04-02T09:00:21.764Z,9.39
2023-04-02T09:01:21.750Z,9.22
2023-04-02T09:02:21.802Z,9.67
2023-04-02T09:03:21.765Z,10.22
2023-04-02T09:04:21.788Z,10.56
2023-04-02T09:06:21.760Z,10.67
2023-04-02T09:07:21.766Z,9.67
2023-04-02T09:09:21.760Z,9.94
2023-04-02T09:10:21.778Z,10.11
2023-04-02T09:11:21.763Z,9.78
2023-04-02T09:12:21.771Z,10.22
2023-04-02T09:13:21.763Z,10.56
2023-04-02T09:14:21.779Z,10.22
2023-04-02T09:16:21.826Z,10.67
2023-04-02T09:18:21.794Z,10.22
2023-04-02T09:19:21.831Z,10.11
2023-04-02T09:20:21.764Z,10.83
2023-04-02T09:21:21.792Z,10.56
2023-04-02T09:22:21.793Z,10.11
2023-04-02T09:24:21.767Z,9.22
2023-04-02T09:26:21.792Z,9.67
2023-04-02T09:28:21.773Z,9.94
2023-04-02T09:30:21.787Z,10.56
2023-04-02T09:31:21.799Z,10.11
2023-04-02T09:32:21.770Z,9.78
2023-04-02T09:34:21.771Z,9.67
2023-04-02T09:35:26.430Z,9.5
2023-04-02T09:36:21.820Z,9.78
2023-04-02T09:37:21.765Z,9.78
2023-04-02T09:38:21.913Z,9.5
2023-04-02T09:39:21.761Z,9.22
2023-04-02T09:40:21.774Z,9.39
2023-04-02T09:42:21.803Z,9.22
2023-04-02T09:43:21.793Z,9.39
2023-04-02T09:44:21.777Z,9.06
2023-04-02T09:45:21.796Z,8.94
2023-04-02T09:47:21.866Z,8.78
2023-04-02T09:48:21.786Z,8.78
2023-04-02T09:49:21.781Z,8.61
2023-04-02T09:51:21.844Z,8.78
2023-04-02T09:52:21.789Z,9.22
2023-04-02T09:53:21.782Z,9.22
2023-04-02T09:55:21.787Z,9.06
2023-04-02T09:56:21.911Z,8.94
2023-04-02T09:57:21.811Z,8.78
2023-04-02T09:58:21.920Z,9.06
2023-04-02T10:00:31.165Z,8.78
2023-04-02T10:02:21.804Z,8.94
2023-04-02T10:04:22.617Z,9.22
2023-04-02T10:05:30.010Z,9.67
2023-04-02T10:06:21.783Z,9.5
2023-04-02T10:08:21.773Z,9.39
2023-04-02T10:09:21.817Z,9.67
2023-04-02T10:10:22.175Z,8.94
2023-04-02T10:11:21.786Z,8.94
2023-04-02T10:12:21.792Z,9.06
2023-04-02T10:13:21.800Z,9.22
2023-04-02T10:14:21.838Z,9.39
2023-04-02T10:16:21.839Z,9.5
2023-04-02T10:17:21.932Z,9.39
2023-04-02T10:18:21.796Z,9.39
2023-04-02T10:19:21.786Z,9.22
2023-04-02T10:20:21.798Z,9.22
2023-04-02T10:21:21.799Z,9.67
2023-04-02T10:22:21.801Z,9.39
2023-04-02T10:24:21.799Z,9.22
2023-04-02T10:25:21.811Z,9.39
2023-04-02T10:27:21.819Z,9.22
2023-04-02T10:28:21.795Z,9.22
2023-04-02T10:29:21.799Z,9.06
2023-04-02T10:30:21.868Z,9.06
2023-04-02T10:32:21.807Z,9.22
2023-04-02T10:33:21.822Z,9.06
2023-04-02T10:34:21.799Z,9.39
2023-04-02T10:35:21.809Z,9.67
2023-04-02T10:36:21.798Z,9.22
2023-04-02T10:37:21.817Z,9.06
2023-04-02T10:39:21.822Z,9.39
2023-04-02T10:41:21.834Z,9.39
2023-04-02T10:42:21.806Z,9.39
2023-04-02T10:43:21.813Z,9.22
2023-04-02T10:45:21.812Z,9.22
2023-04-02T10:46:23.736Z,9.22
2023-04-02T10:47:21.814Z,9.22
2023-04-02T10:48:21.822Z,9.22
2023-04-02T10:49:21.851Z,9.39
2023-04-02T10:50:21.829Z,9.22
2023-04-02T10:51:21.815Z,9.5
2023-04-02T10:52:21.821Z,9.39
2023-04-02T10:53:21.832Z,9.5
2023-04-02T10:54:21.835Z,9.67
2023-04-02T10:55:21.836Z,9.67
2023-04-02T10:56:21.829Z,9.22
2023-04-02T10:57:21.865Z,9.5
2023-04-02T10:58:21.828Z,9.22
2023-04-02T10:59:21.834Z,9.06
2023-04-02T11:00:21.821Z,9.22
2023-04-02T11:01:21.848Z,9.06
2023-04-02T11:02:21.949Z,9.22
2023-04-02T11:03:21.988Z,8.78
2023-04-02T11:04:21.848Z,9.39
2023-04-02T11:06:21.845Z,9.22
2023-04-02T11:08:21.832Z,9.5
2023-04-02T11:09:21.829Z,9.67
2023-04-02T11:10:21.840Z,9.39
2023-04-02T11:11:21.829Z,9.39
2023-04-02T11:13:21.883Z,9.22
2023-04-02T11:14:21.834Z,9.22
2023-04-02T11:15:21.842Z,9.22
2023-04-02T11:17:21.902Z,9.39
2023-04-02T11:18:21.867Z,9.22
2023-04-02T11:20:21.855Z,9.22
2023-04-02T11:21:21.828Z,9.06
2023-04-02T11:22:21.833Z,9.06
2023-04-02T11:23:21.834Z,9.22
2023-04-02T11:24:21.835Z,9.22
2023-04-02T11:25:21.857Z,9.06
2023-04-02T11:27:21.837Z,9.22
2023-04-02T11:28:22.485Z,9.06
2023-04-02T11:29:21.841Z,9.39
2023-04-02T11:31:21.909Z,9.39
2023-04-02T11:32:21.932Z,9.39
2023-04-02T11:33:30.136Z,9.22
2023-04-02T11:34:21.863Z,9.22
2023-04-02T11:36:21.885Z,9.39
2023-04-02T11:38:21.865Z,9.67
2023-04-02T11:39:21.851Z,9.5
2023-04-02T11:40:21.839Z,9.5
2023-04-02T11:41:21.851Z,9.39
2023-04-02T11:42:21.850Z,9.5
2023-04-02T11:43:21.855Z,9.39
2023-04-02T11:44:21.851Z,9.67
2023-04-02T11:45:21.882Z,9.22
2023-04-02T11:46:21.872Z,9.67
2023-04-02T11:47:21.854Z,9.67
2023-04-02T11:49:21.875Z,9.67
2023-04-02T11:50:21.893Z,9.78
2023-04-02T11:51:21.906Z,10.11
2023-04-02T11:52:21.862Z,9.94
2023-04-02T11:53:21.865Z,10.11
2023-04-02T11:54:21.851Z,9.67
2023-04-02T11:55:21.845Z,9.78
2023-04-02T11:56:21.880Z,10.11
2023-04-02T11:58:21.854Z,10.22
2023-04-02T11:59:21.884Z,10.11
2023-04-02T12:01:21.849Z,10.11
2023-04-02T12:02:21.980Z,9.94
2023-04-02T12:03:22.001Z,10.11
2023-04-02T12:04:21.883Z,9.39
2023-04-02T12:06:21.896Z,10.11
2023-04-02T12:07:21.859Z,10.39
2023-04-02T12:08:21.868Z,10.67
2023-04-02T12:10:21.884Z,10.56
2023-04-02T12:11:21.853Z,10.39
2023-04-02T12:12:21.884Z,10.83
2023-04-02T12:14:21.877Z,10.67
2023-04-02T12:16:21.878Z,10.56
2023-04-02T12:18:21.883Z,10.39
2023-04-02T12:20:21.887Z,10.22
2023-04-02T12:21:21.888Z,10.22
2023-04-02T12:22:21.913Z,10.39
2023-04-02T12:24:21.871Z,10.22
2023-04-02T12:25:21.865Z,10.11
2023-04-02T12:26:23.030Z,10.56
2023-04-02T12:27:21.853Z,9.94
2023-04-02T12:28:21.863Z,10.11
2023-04-02T12:29:21.875Z,9.67
2023-04-02T12:30:21.863Z,9.94
2023-04-02T12:31:21.918Z,10.11
2023-04-02T12:32:21.882Z,9.94
2023-04-02T12:34:21.871Z,9.94
2023-04-02T12:35:21.870Z,9.67
2023-04-02T12:36:21.901Z,9.67
2023-04-02T12:37:21.870Z,10.11
2023-04-02T12:38:21.926Z,10.22
2023-04-02T12:40:21.884Z,9.67
2023-04-02T12:41:21.869Z,9.67
2023-04-02T12:42:21.882Z,9.78
2023-04-02T12:44:21.867Z,9.5
2023-04-02T12:45:21.875Z,9.67
2023-04-02T12:47:21.883Z,9.22
2023-04-02T12:49:21.899Z,9.22
2023-04-02T12:51:21.880Z,9.06
2023-04-02T12:52:21.883Z,9.06
2023-04-02T12:54:21.906Z,8.61
2023-04-02T12:56:21.881Z,8.78
2023-04-02T12:57:21.908Z,8.5
2023-04-02T12:58:21.872Z,8.61
2023-04-02T12:59:21.880Z,8.61
2023-04-02T13:00:21.876Z,8.5
2023-04-02T13:01:21.899Z,8.61
2023-04-02T13:02:21.900Z,8.61
2023-04-02T13:03:22.099Z,9
2023-04-02T13:04:21.923Z,8.94
2023-04-02T13:05:21.888Z,8.94
2023-04-02T13:07:21.880Z,8.78
2023-04-02T13:08:21.877Z,8.61
2023-04-02T13:09:21.880Z,9.22
2023-04-02T13:10:21.914Z,8.94
2023-04-02T13:11:21.878Z,9.22
2023-04-02T13:12:21.888Z,9.5
2023-04-02T13:13:21.879Z,9.39
2023-04-02T13:14:21.896Z,9.39
2023-04-02T13:15:21.895Z,9.22
2023-04-02T13:16:21.909Z,9.39
2023-04-02T13:17:21.887Z,9.22
2023-04-02T13:18:21.881Z,9.22
2023-04-02T13:19:21.899Z,9.22
2023-04-02T13:21:21.892Z,9.67
2023-04-02T13:23:21.895Z,9.06
2023-04-02T13:25:21.884Z,8.94
2023-04-02T13:26:21.940Z,9.17
2023-04-02T13:28:21.908Z,9.22
2023-04-02T13:30:21.885Z,10.11
2023-04-02T13:31:21.912Z,9.78
2023-04-02T13:33:21.908Z,10.22
2023-04-02T13:34:21.892Z,10.39
2023-04-02T13:35:21.896Z,10.56
2023-04-02T13:36:21.892Z,9.94
2023-04-02T13:37:21.923Z,9.78
2023-04-02T13:38:21.895Z,10.56
2023-04-02T13:39:21.898Z,10.83
2023-04-02T13:40:21.906Z,10.67
2023-04-02T13:41:21.909Z,10.39
2023-04-02T13:42:21.927Z,10.67
2023-04-02T13:43:21.889Z,10.67
2023-04-02T13:44:21.895Z,10.39
2023-04-02T13:45:21.947Z,10.22
2023-04-02T13:47:21.900Z,9.94
2023-04-02T13:48:21.901Z,10.39
2023-04-02T13:49:21.896Z,9.94
2023-04-02T13:50:21.905Z,9.94
2023-04-02T13:52:21.901Z,9.78
2023-04-02T13:53:21.914Z,9.67
2023-04-02T13:54:21.894Z,9.39
2023-04-02T13:55:21.897Z,9.22
2023-04-02T13:56:21.893Z,9.22
2023-04-02T13:57:21.972Z,8.83
2023-04-02T13:58:21.932Z,8.78
2023-04-02T13:59:21.901Z,9.06
2023-04-02T14:00:21.891Z,8.78
2023-04-02T14:01:21.951Z,9.06
2023-04-02T14:02:21.931Z,9
2023-04-02T14:03:21.907Z,8.67
2023-04-02T14:04:21.942Z,8.83
2023-04-02T14:06:21.899Z,9.06
2023-04-02T14:07:21.899Z,8.67
2023-04-02T14:08:21.906Z,9.22
2023-04-02T14:10:21.900Z,9.22
2023-04-02T14:12:21.906Z,8.83
2023-04-02T14:13:21.893Z,8.67
2023-04-02T14:14:21.922Z,9.44
2023-04-02T14:16:21.926Z,9
2023-04-02T14:17:21.922Z,9.17
2023-04-02T14:18:21.914Z,9.44
2023-04-02T14:20:21.911Z,9.28
2023-04-02T14:22:21.919Z,9.67
2023-04-02T14:24:21.901Z,9.5
2023-04-02T14:25:21.908Z,9.67
2023-04-02T14:26:21.925Z,9.33
2023-04-02T14:27:21.898Z,9.33
2023-04-02T14:28:21.931Z,9.28
2023-04-02T14:29:21.917Z,9.17
2023-04-02T14:30:21.950Z,9.44
2023-04-02T14:32:21.936Z,9
2023-04-02T14:34:21.911Z,9
2023-04-02T14:35:21.937Z,8.67
2023-04-02T14:36:21.942Z,8.61
2023-04-02T14:37:21.914Z,8.67
2023-04-02T14:38:21.909Z,9.17
2023-04-02T14:39:21.909Z,9.17
2023-04-02T14:41:21.924Z,9.44
2023-04-02T14:43:21.912Z,8.44
2023-04-02T14:44:21.901Z,8.83
2023-04-02T14:45:21.906Z,9.17
2023-04-02T14:46:22.003Z,8.83
2023-04-02T14:48:21.924Z,9.5
2023-04-02T14:50:21.906Z,9.78
2023-04-02T14:51:21.912Z,9.5
2023-04-02T14:53:21.940Z,9.28
2023-04-02T14:54:21.906Z,9.28
2023-04-02T14:55:21.919Z,9.28
2023-04-02T14:57:21.974Z,9.06
2023-04-02T14:58:21.911Z,9.22
2023-04-02T15:00:21.913Z,9.17
2023-04-02T15:01:21.938Z,8.83
2023-04-02T15:02:21.940Z,9.06
2023-04-02T15:04:21.936Z,9
2023-04-02T15:05:21.912Z,8.83
2023-04-02T15:06:21.909Z,9.06
2023-04-02T15:07:21.916Z,9
2023-04-02T15:08:21.915Z,9
2023-04-02T15:09:21.919Z,9
2023-04-02T15:10:21.955Z,9
2023-04-02T15:12:21.922Z,8.94
2023-04-02T15:13:21.949Z,8.61
2023-04-02T15:14:21.915Z,8.61
2023-04-02T15:15:27.085Z,8.61
2023-04-02T15:16:21.920Z,8.33
2023-04-02T15:17:22.074Z,8.5
2023-04-02T15:18:21.925Z,8.61
2023-04-02T15:19:21.918Z,8.61
2023-04-02T15:20:21.922Z,8.44
2023-04-02T15:21:21.919Z,8.17
2023-04-02T15:23:21.912Z,8.28
2023-04-02T15:25:21.924Z,8.11
2023-04-02T15:26:21.919Z,8.17
2023-04-02T15:27:24.795Z,7.78
2023-04-02T15:29:28.624Z,7.94
2023-04-02T15:30:21.935Z,7.94
2023-04-02T15:31:21.938Z,7.94
2023-04-02T15:32:21.922Z,7.61
2023-04-02T15:34:21.940Z,7.39
2023-04-02T15:35:21.913Z,7.22
2023-04-02T15:36:21.989Z,7.28
2023-04-02T15:37:21.920Z,7.22
2023-04-02T15:39:21.929Z,6.94
2023-04-02T15:41:23.520Z,7.11
2023-04-02T15:42:21.967Z,7.11
2023-04-02T15:44:21.960Z,7.11
2023-04-02T15:45:21.904Z,7.17
2023-04-02T15:46:21.982Z,6.94
2023-04-02T15:48:21.912Z,7.39
2023-04-02T15:49:21.918Z,7.39
2023-04-02T15:50:21.939Z,7.5
2023-04-02T15:52:21.927Z,7.22
2023-04-02T15:54:21.925Z,6.94
2023-04-02T15:55:21.929Z,7.11
2023-04-02T15:57:21.949Z,7.22
2023-04-02T15:59:21.919Z,6.94
2023-04-02T16:00:21.927Z,6.5
2023-04-02T16:01:22.029Z,6.78
2023-04-02T16:03:21.927Z,6.78
2023-04-02T16:04:21.935Z,6.5
2023-04-02T16:05:21.946Z,6.67
2023-04-02T16:06:21.954Z,6.5
2023-04-02T16:08:21.933Z,6.5
2023-04-02T16:09:21.942Z,6.39
2023-04-02T16:10:30.589Z,6.06
2023-04-02T16:11:21.941Z,6.22
2023-04-02T16:13:21.932Z,6.06
2023-04-02T16:14:21.923Z,5.94
2023-04-02T16:15:21.925Z,6.22
2023-04-02T16:16:22.036Z,6.39
2023-04-02T16:17:25.165Z,6.22
2023-04-02T16:18:21.928Z,6.22
2023-04-02T16:19:22.632Z,6.22
2023-04-02T16:21:21.927Z,6.06
2023-04-02T16:22:22.071Z,5.94
2023-04-02T16:24:21.953Z,6.06
2023-04-02T16:26:21.941Z,6.06
2023-04-02T16:27:21.945Z,6.06
2023-04-02T16:28:21.941Z,6.06
2023-04-02T16:29:21.935Z,6.06
2023-04-02T16:30:21.938Z,6.39
2023-04-02T16:32:21.961Z,6.5
2023-04-02T16:34:21.945Z,5.94
2023-04-02T16:36:21.971Z,6.22
2023-04-02T16:37:21.939Z,5.94
2023-04-02T16:38:21.962Z,5.94
2023-04-02T16:40:21.949Z,6.06
2023-04-02T16:41:21.947Z,6.22
2023-04-02T16:43:21.959Z,6.06
2023-04-02T16:45:21.944Z,5.67
2023-04-02T16:46:28.319Z,6.06
2023-04-02T16:47:21.953Z,5.94
2023-04-02T16:48:21.946Z,6.22